Latest Weather Observations for Cape Leeuwin

IDW60801

Issued at 7:32 pm WST Tuesday 4 August 2015 (issued every 30 minutes, with the page automatically refreshed every 10 minutes)

About weather observations | Map of weather stations | Latest weather observations for WA | Other Formats
Station Details ID: 009518 Name: CAPE LEEUWIN Lat: -34.37 Lon: 115.14 Height: 13.0 m
Data from the previous 72 hours. | See also: Recent months at Cape Leeuwin
Date/Time
WST
Temp
°C
App
Temp
°C
Dew
Point
Rel
Hum
%
Delta-T
°C
Wind Press
QNH
hPa
Press
MSL
hPa
Rain
since 9 am
mm
Dir
 
Spd
km/h
Gust
km/h
Spd
kts
Gust
kts
04/07:30pm 14.6 8.6 7.2 61 3.6 SE 28 33 15 18 1033.2 1033.2 0.0
04/07:00pm 14.8 9.3 7.4 61 3.6 SE 26 35 14 19 1033.1 1033.1 0.0
04/06:30pm 14.7 9.2 7.6 62 3.5 SE 26 33 14 18 1033.0 1033.0 0.0
04/06:00pm 14.6 9.1 7.4 62 3.5 SE 26 33 14 18 1032.8 1032.8 0.0
04/05:30pm 14.6 9.2 7.9 64 3.3 SE 26 33 14 18 1032.6 1032.6 0.0
04/05:00pm 15.0 9.6 8.2 64 3.4 SE 26 33 14 18 1032.3 1032.3 0.0
04/04:30pm 15.4 10.0 8.2 62 3.6 SE 26 32 14 17 1032.4 1032.4 0.0
04/04:00pm 15.6 10.1 7.7 59 3.9 SE 26 32 14 17 1032.3 1032.3 0.0
04/03:30pm 16.2 11.2 8.2 59 4.1 SE 24 32 13 17 1032.4 1032.4 0.0
04/03:00pm 16.2 11.8 8.9 62 3.7 SE 22 30 12 16 1032.5 1032.5 0.0
04/02:30pm 16.2 11.9 9.4 64 3.5 SE 22 28 12 15 1032.7 1032.7 0.0
04/02:00pm 16.2 12.5 9.6 65 3.4 ESE 19 26 10 14 1032.9 1032.9 0.0
04/01:30pm 16.1 12.5 10.4 69 3.0 ESE 20 28 11 15 1033.1 1033.1 0.0
04/01:00pm 15.9 11.4 9.9 67 3.1 ESE 24 30 13 16 1033.3 1033.3 0.0
04/12:30pm 15.8 11.9 10.9 72 2.6 E 22 28 12 15 1033.8 1033.8 0.0
04/12:00pm 15.1 11.1 10.5 74 2.4 E 22 28 12 15 1034.2 1034.2 0.0
04/11:30am 14.9 11.5 11.3 79 1.9 ENE 20 24 11 13 1034.6 1034.6 0.0
04/11:00am 14.3 11.1 11.1 81 1.7 E 19 22 10 12 1034.9 1034.9 0.0
04/10:30am 14.0 11.0 10.7 80 1.7 ENE 17 22 9 12 1035.2 1035.2 0.0
04/10:00am 13.6 10.3 10.9 84 1.4 ENE 19 22 10 12 1035.3 1035.3 0.0
04/09:30am 13.7 10.1 10.4 80 1.7 ENE 20 26 11 14 1035.3 1035.3 0.0
04/09:00am 12.8 9.7 11.5 92 0.7 ENE 19 24 10 13 1035.3 1035.3 1.4
04/08:30am 12.4 9.3 10.4 88 1.0 ENE 17 20 9 11 1035.2 1035.2 1.4
04/08:00am 11.8 9.5 10.4 91 0.7 NE 13 17 7 9 1035.1 1035.1 1.4
04/07:30am 11.8 9.3 11.0 95 0.4 NE 15 19 8 10 1034.9 1034.9 1.4
04/07:00am 11.9 9.0 10.9 94 0.5 NE 17 22 9 12 1034.8 1034.8 1.4
04/06:30am 12.2 10.1 11.2 94 0.5 NE 13 17 7 9 1034.5 1034.5 1.4
04/06:00am 12.5 10.1 11.5 94 0.5 NE 15 20 8 11 1034.4 1034.4 1.4
04/05:30am 12.2 9.5 11.6 96 0.3 NE 17 22 9 12 1034.2 1034.2 1.4
04/05:00am 12.4 9.9 11.2 92 0.6 ENE 15 22 8 12 1034.0 1034.0 1.0
04/04:30am 12.2 9.7 11.2 94 0.5 NE 15 19 8 10 1034.1 1034.1 1.0
04/04:00am 12.3 10.6 11.1 92 0.6 ENE 11 15 6 8 1034.0 1034.0 1.0
04/03:30am 13.1 11.1 11.6 91 0.8 ENE 13 19 7 10 1034.0 1034.0 1.0
04/03:00am 13.6 11.1 11.1 85 1.3 E 15 20 8 11 1034.0 1034.0 0.8
04/02:30am 13.6 11.7 11.7 88 1.0 ENE 13 19 7 10 1034.1 1034.1 0.8
04/02:00am 14.3 10.5 11.3 82 1.6 ESE 22 28 12 15 1034.0 1034.0 0.8
04/01:30am 14.6 11.6 11.8 83 1.5 ESE 19 26 10 14 1034.1 1034.1 0.8
04/01:00am 14.0 11.1 10.9 81 1.6 ESE 17 24 9 13 1034.3 1034.3 0.6
04/12:30am 14.0 9.9 11.3 84 1.4 SE 24 30 13 16 1034.2 1034.2 0.6
04/12:00am 14.0 9.9 11.3 84 1.4 SE 24 30 13 16 1034.1 1034.1 0.6
 
Date/Time
WST
Temp
°C
App
Temp
°C
Dew
Point
Rel
Hum
%
Delta-T
°C
Wind Press
QNH
hPa
Press
MSL
hPa
Rain
since 9 am
mm
Dir
 
Spd
km/h
Gust
km/h
Spd
kts
Gust
kts
03/11:30pm 13.6 10.5 12.1 91 0.8 S 20 32 11 17 1034.2 1034.2 0.2
03/11:00pm 13.5 8.5 11.0 85 1.3 SSE 28 32 15 17 1034.3 1034.3 0.2
03/10:30pm 14.4 10.2 12.4 88 1.1 SSE 26 35 14 19 1034.4 1034.4 0.2
03/10:00pm 14.4 11.3 11.6 83 1.5 SE 19 28 10 15 1034.7 1034.7 0.2
03/09:30pm 14.1 11.2 12.2 88 1.0 ESE 19 26 10 14 1034.9 1034.9 0.2
03/09:00pm 14.3 11.2 12.3 88 1.1 SE 20 28 11 15 1035.0 1035.0 0.0
03/08:30pm 14.6 10.7 10.8 78 2.0 SE 22 30 12 16 1034.9 1034.9 0.0
03/08:00pm 14.3 10.6 11.5 83 1.5 SE 22 28 12 15 1034.7 1034.7 0.0
03/07:30pm 14.7 11.1 11.9 83 1.5 SSE 22 30 12 16 1034.5 1034.5 0.0
03/07:00pm 14.3 11.5 11.3 82 1.6 SE 17 22 9 12 1034.4 1034.4 0.0
03/06:30pm 14.1 10.8 11.5 84 1.4 SE 20 26 11 14 1034.3 1034.3 0.0
03/06:00pm 14.2 11.1 12.1 87 1.1 S 20 28 11 15 1034.2 1034.2 0.0
03/05:30pm 14.5 12.5 11.5 82 1.6 SSW 13 17 7 9 1033.9 1033.9 0.0
03/05:00pm 15.0 13.0 11.4 79 1.9 SSW 13 19 7 10 1033.9 1033.9 0.0
03/04:30pm 15.5 13.7 10.7 73 2.5 S 11 13 6 7 1034.1 1034.1 0.0
03/04:00pm 16.3 14.4 10.4 68 3.1 S 11 17 6 9 1034.0 1034.0 0.0
03/03:30pm 16.7 14.6 9.8 63 3.6 S 11 15 6 8 1033.8 1033.8 0.0
03/03:00pm 16.4 14.6 9.4 63 3.6 S 9 13 5 7 1033.7 1033.7 0.0
03/02:30pm 16.8 14.6 9.4 61 3.9 S 11 13 6 7 1033.9 1033.9 0.0
03/02:00pm 16.4 14.5 9.2 62 3.7 S 9 13 5 7 1034.2 1034.2 0.0
03/01:30pm 16.5 14.5 8.8 60 4.0 S 9 11 5 6 1034.3 1034.3 0.0
03/01:00pm 16.2 14.6 8.9 62 3.7 ESE 7 11 4 6 1034.4 1034.4 0.0
03/12:30pm 15.6 13.7 9.1 65 3.3 E 9 11 5 6 1034.8 1034.8 0.0
03/12:00pm 15.0 12.6 8.8 66 3.1 E 11 13 6 7 1035.3 1035.3 0.0
03/11:30am 16.4 14.8 8.9 61 3.9 E 7 11 4 6 1035.7 1035.7 0.0
03/11:00am 16.5 14.2 9.1 61 3.8 NE 11 15 6 8 1035.8 1035.8 0.0
03/10:30am 15.6 12.9 8.9 64 3.4 NNE 13 17 7 9 1035.9 1035.9 0.0
03/10:00am 14.6 11.0 8.4 66 3.1 NNE 17 22 9 12 1035.9 1035.9 0.0
03/09:30am 13.6 9.6 8.3 70 2.6 NNE 19 26 10 14 1035.9 1035.9 0.0
03/09:00am 13.3 9.7 8.4 72 2.4 NE 17 24 9 13 1035.8 1035.8 0.2
03/08:30am 12.9 9.6 8.2 73 2.3 NE 15 19 8 10 1035.7 1035.7 0.2
03/08:00am 11.8 8.0 7.6 75 2.0 NNE 17 20 9 11 1035.7 1035.7 0.2
03/07:30am 11.1 6.9 7.5 78 1.7 NNE 19 20 10 11 1035.3 1035.3 0.2
03/07:00am 10.7 7.0 7.8 82 1.4 NNE 17 20 9 11 1035.0 1035.0 0.2
03/06:30am 10.7 7.0 7.8 82 1.4 NNE 17 20 9 11 1034.8 1034.8 0.2
03/06:00am 10.8 7.1 7.9 82 1.4 NNE 17 22 9 12 1034.7 1034.7 0.2
03/05:30am 10.9 7.3 8.2 83 1.3 NE 17 20 9 11 1034.7 1034.7 0.2
03/05:00am 11.4 8.2 8.5 82 1.4 NE 15 19 8 10 1035.0 1035.0 0.2
03/04:30am 11.8 9.1 8.8 82 1.5 NE 13 17 7 9 1034.9 1034.9 0.2
03/04:00am 11.8 8.7 9.0 83 1.4 NE 15 19 8 10 1034.8 1034.8 0.2
03/03:30am 11.8 8.7 9.0 83 1.4 NE 15 19 8 10 1034.7 1034.7 0.2
03/03:00am 12.0 8.6 9.0 82 1.5 NE 17 20 9 11 1034.8 1034.8 0.2
03/02:30am 11.9 8.9 9.1 83 1.4 NE 15 20 8 11 1034.8 1034.8 0.2
03/02:00am 12.2 9.6 9.4 83 1.4 NE 13 17 7 9 1034.8 1034.8 0.2
03/01:30am 11.7 10.2 9.1 84 1.3 NE 7 17 4 9 1034.8 1034.8 0.2
03/01:00am 12.2 10.8 9.4 83 1.4 N 7 9 4 5 1034.8 1034.8 0.2
03/12:30am 12.5 11.2 10.1 85 1.2 NE 7 9 4 5 1034.8 1034.8 0.2
03/12:00am 12.4 10.4 10.0 85 1.2 NE 11 13 6 7 1034.7 1034.7 0.2
 
Date/Time
WST
Temp
°C
App
Temp
°C
Dew
Point
Rel
Hum
%
Delta-T
°C
Wind Press
QNH
hPa
Press
MSL
hPa
Rain
since 9 am
mm
Dir
 
Spd
km/h
Gust
km/h
Spd
kts
Gust
kts
02/11:30pm 12.7 10.0 10.4 86 1.2 NE 15 19 8 10 1034.9 1034.9 0.2
02/11:00pm 12.2 9.8 10.0 86 1.1 NE 13 19 7 10 1035.0 1035.0 0.2
02/10:30pm 12.5 9.4 10.3 86 1.1 NE 17 20 9 11 1035.2 1035.2 0.2
02/10:00pm 14.0 10.5 8.6 70 2.7 SE 17 20 9 11 1035.3 1035.3 0.2
02/09:30pm 14.2 10.7 10.1 76 2.1 SE 19 26 10 14 1035.4 1035.4 0.2
02/09:00pm 14.1 10.4 9.6 74 2.3 SE 19 26 10 14 1035.3 1035.3 0.2
02/08:30pm 13.8 9.6 9.7 76 2.1 ESE 22 28 12 15 1035.2 1035.2 0.2
02/08:00pm 13.4 10.2 9.9 79 1.8 SE 17 24 9 13 1035.2 1035.2 0.2
02/07:30pm 13.1 10.4 10.2 82 1.5 ESE 15 20 8 11 1035.3 1035.3 0.2
02/07:00pm 13.1 11.2 10.4 84 1.4 S 11 20 6 11 1035.2 1035.2 0.2
02/06:30pm 12.9 11.0 10.6 86 1.2 S 11 17 6 9 1035.1 1035.1 0.2
02/06:00pm 13.1 10.0 10.2 82 1.5 S 17 22 9 12 1034.7 1034.7 0.2
02/05:30pm 13.3 9.8 10.2 81 1.6 S 19 26 10 14 1034.4 1034.4 0.2
02/05:00pm 14.7 11.8 9.8 72 2.5 SSE 15 20 8 11 1034.1 1034.1 0.2
02/04:30pm 14.3 11.4 9.8 74 2.3 ESE 15 20 8 11 1033.9 1033.9 0.2
02/04:00pm 14.4 11.4 9.3 71 2.6 ESE 15 20 8 11 1033.8 1033.8 0.2
02/03:30pm 15.7 13.3 8.6 62 3.6 SE 11 19 6 10 1033.6 1033.6 0.2
02/03:00pm 14.5 11.8 8.9 69 2.8 SE 13 19 7 10 1033.4 1033.4 0.2
02/02:30pm 14.7 10.9 9.0 68 2.9 SE 19 24 10 13 1033.2 1033.2 0.2
02/02:00pm 15.3 12.4 8.3 63 3.5 ESE 13 17 7 9 1033.2 1033.2 0.2
02/01:30pm 15.4 13.2 7.7 60 3.8 SE 9 11 5 6 1033.4 1033.4 0.2
02/01:00pm 15.1 13.3 7.8 61 3.6 ESE 7 11 4 6 1033.8 1033.8 0.2
02/12:30pm 14.9 13.4 9.0 68 3.0 ESE 7 11 4 6 1034.2 1034.2 0.2
02/12:00pm 14.9 12.6 9.0 68 3.0 E 11 13 6 7 1034.6 1034.6 0.2
02/11:30am 14.2 12.6 8.6 69 2.8 E 7 11 4 6 1034.9 1034.9 0.2
02/11:00am 14.1 11.4 9.1 72 2.5 ENE 13 17 7 9 1035.0 1035.0 0.2
02/10:30am 13.0 9.6 9.2 78 1.9 ENE 17 22 9 12 1035.0 1035.0 0.2
02/10:00am 13.4 11.4 10.1 80 1.7 NE 11 15 6 8 1034.8 1034.8 0.2
02/09:30am 12.5 8.6 9.5 82 1.5 E 20 30 11 16 1034.7 1034.7 0.0
02/09:00am 13.5 10.7 8.4 71 2.5 S 13 20 7 11 1034.5 1034.5 0.0
02/08:30am 11.9 9.3 9.5 85 1.2 E 13 22 7 12 1034.4 1034.4 0.0
02/08:00am 12.0 9.3 8.8 81 1.6 SE 13 24 7 13 1033.9 1033.9 0.0
02/07:30am 11.6 9.0 9.2 85 1.2 ENE 13 20 7 11 1033.5 1033.5 0.0
02/07:00am 11.3 10.7 8.9 85 1.2 NE 2 7 1 4 1033.1 1033.1 0.0
02/06:30am 11.7 8.7 9.3 85 1.2 SE 15 20 8 11 1032.8 1032.8 0.0
02/06:00am 12.0 8.6 9.2 83 1.4 E 17 28 9 15 1032.4 1032.4 0.0
02/05:30am 12.2 7.4 8.8 80 1.7 SE 24 30 13 16 1032.2 1032.2 0.0
02/05:00am 12.1 8.0 8.0 76 2.0 SE 19 26 10 14 1032.1 1032.1 0.0
02/04:30am 11.5 9.0 9.7 89 0.9 SSE 13 17 7 9 1032.2 1032.2 0.0
02/04:00am 11.7 7.5 8.4 80 1.6 SW 20 28 11 15 1032.0 1032.0 0.0
02/03:30am 12.4 8.8 6.9 69 2.6 SE 15 20 8 11 1032.2 1032.2 0.0
02/03:00am 11.2 8.3 8.3 82 1.4 ENE 13 15 7 8 1032.4 1032.4 0.0
02/02:30am 11.3 7.4 9.5 89 0.9 E 20 26 11 14 1032.4 1032.4 0.0
02/02:00am 12.4 7.8 8.3 76 2.0 SE 22 33 12 18 1032.3 1032.3 0.0
02/01:30am 11.9 8.0 7.3 73 2.2 ESE 17 20 9 11 1032.1 1032.1 0.0
02/01:00am 12.1 7.3 7.5 73 2.2 SE 22 33 12 18 1032.2 1032.2 0.0
02/12:30am 12.2 7.5 7.6 73 2.2 SSE 22 32 12 17 1032.2 1032.2 0.0
02/12:00am 11.3 7.9 7.8 79 1.7 SE 15 20 8 11 1032.1 1032.1 0.0
 
Date/Time
WST
Temp
°C
App
Temp
°C
Dew
Point
Rel
Hum
%
Delta-T
°C
Wind Press
QNH
hPa
Press
MSL
hPa
Rain
since 9 am
mm
Dir
 
Spd
km/h
Gust
km/h
Spd
kts
Gust
kts
01/11:30pm 12.2 7.8 7.6 73 2.2 S 20 30 11 16 1032.0 1032.0 0.0
01/11:00pm 12.1 6.0 6.6 69 2.6 SSE 28 35 15 19 1032.1 1032.1 0.0
01/10:30pm 12.2 7.5 6.0 66 2.9 SSE 20 26 11 14 1031.9 1031.9 0.0
01/10:00pm 12.5 6.1 5.3 61 3.3 SE 28 35 15 19 1031.8 1031.8 0.0
01/09:30pm 12.4 6.5 7.6 72 2.3 SE 28 35 15 19 1031.9 1031.9 0.0
01/09:00pm 13.0 8.2 5.4 60 3.5 SSE 20 30 11 16 1031.6 1031.6 0.0
01/08:30pm 13.0 7.8 3.8 53 4.1 S 20 28 11 15 1031.3 1031.3 0.0
01/08:00pm 12.9 6.9 3.1 51 4.3 SSE 24 32 13 17 1031.1 1031.1 0.0

Other Formats:

Comma delimited format used in spreadsheet applications
http://www.bom.gov.au/fwo/IDW60801/IDW60801.94601.axf

JavaScript Object Notation format (JSON) in row-major order
http://www.bom.gov.au/fwo/IDW60801/IDW60801.94601.json